Time;durP1;ratioP1;P1;durP2;ratioP2;P2;SDS_P1;SDS_P2;PMS_P1;PMS_P2;Temp;Humidity;BMP_temperature;BMP_pressure;BME280_temperature;BME280_humidity;BME280_pressure;Samples;Min_cycle;Max_cycle;Signal;HPM_P1;HPM_P2
2022/12/01 00:00:20;;;;;;;;;;;22.40;58.40;;;;;;215577;1276;22545;-54
2022/12/01 00:06:06;;;;;;;18.40;11.80;;;22.30;58.40;;;;;;215400;1274;24257;-54
2022/12/01 00:11:27;;;;;;;14.10;11.40;;;22.30;58.30;;;;;;215396;1283;23223;-54
2022/12/01 00:17:04;;;;;;;15.40;10.60;;;22.30;58.20;;;;;;215480;1283;22587;-54
2022/12/01 00:22:27;;;;;;;17.60;10.90;;;22.30;58.30;;;;;;214479;1281;24396;-54
2022/12/01 00:27:32;;;;;;;13.40;10.40;;;22.20;58.20;;;;;;214531;1279;24313;-53
2022/12/01 00:32:36;;;;;;;14.20;11.10;;;22.10;58.20;;;;;;214273;1287;24010;-55
2022/12/01 00:37:41;;;;;;;14.70;10.80;;;22.00;58.50;;;;;;214506;1284;22521;-53
2022/12/01 00:42:45;;;;;;;18.20;11.40;;;21.90;59.30;;;;;;214479;1280;22671;-52
2022/12/01 00:47:49;;;;;;;14.20;10.60;;;21.80;59.10;;;;;;214470;1278;22507;-55
2022/12/01 00:52:59;;;;;;;14.10;10.50;;;21.70;59.20;;;;;;214491;1277;23430;-54
2022/12/01 00:58:12;;;;;;;13.00;10.80;;;21.70;59.20;;;;;;214632;1285;24473;-54
2022/12/01 01:03:18;;;;;;;14.80;11.60;;;21.60;59.10;;;;;;214528;1279;22575;-54
2022/12/01 01:08:21;;;;;;;15.10;10.30;;;21.60;59.10;;;;;;214995;1291;22446;-54
2022/12/01 01:13:25;;;;;;;15.30;11.00;;;21.50;59.30;;;;;;215121;1283;26243;-54
2022/12/01 01:18:29;;;;;;;12.70;10.90;;;21.40;58.90;;;;;;214878;1300;23056;-53
2022/12/01 01:23:33;;;;;;;12.90;10.60;;;21.30;59.00;;;;;;222485;1281;22463;-53
2022/12/01 01:28:40;;;;;;;13.50;10.90;;;21.30;59.20;;;;;;218614;1290;22559;-53
2022/12/01 01:33:44;;;;;;;16.20;11.80;;;21.30;59.50;;;;;;216192;1285;23882;-56
2022/12/01 01:38:52;;;;;;;12.70;10.40;;;21.20;59.10;;;;;;215344;1279;22479;-54
2022/12/01 01:44:04;;;;;;;14.00;11.40;;;21.20;59.40;;;;;;215097;1300;23840;-54
2022/12/01 01:49:11;;;;;;;14.50;10.50;;;21.10;59.10;;;;;;214906;1289;23879;-53
2022/12/01 01:54:27;;;;;;;13.80;11.20;;;21.10;59.10;;;;;;215104;1297;25344;-52
2022/12/01 01:59:36;;;;;;;12.90;10.20;;;21.00;59.10;;;;;;215425;1288;22460;-54
2022/12/01 02:04:45;;;;;;;13.40;9.80;;;21.10;59.10;;;;;;214990;1289;23784;-54
2022/12/01 02:09:49;;;;;;;11.40;9.20;;;21.40;58.50;;;;;;215074;1288;22470;-54
2022/12/01 02:15:17;;;;;;;11.30;9.00;;;21.80;57.40;;;;;;214887;1288;22474;-55
2022/12/01 02:20:33;;;;;;;12.80;9.10;;;22.00;57.10;;;;;;215120;1277;24317;-55
2022/12/01 02:26:03;;;;;;;12.60;9.70;;;22.20;56.90;;;;;;214939;1289;23880;-53
2022/12/01 02:31:42;;;;;;;11.40;9.10;;;22.30;56.60;;;;;;214871;1293;22441;-55
2022/12/01 02:36:54;;;;;;;13.30;9.70;;;22.30;56.60;;;;;;214798;1298;22453;-53
2022/12/01 02:47:52;;;;;;;;;;;22.50;55.70;;;;;;220186;1299;24162;-53
2022/12/01 02:52:56;;;;;;;18.10;9.00;;;22.50;55.50;;;;;;217758;1285;25331;-52
2022/12/01 02:57:59;;;;;;;10.90;8.90;;;22.70;55.40;;;;;;223614;1284;22106;-52
2022/12/01 03:03:26;;;;;;;11.60;9.40;;;22.60;55.20;;;;;;215803;1286;25966;-55
2022/12/01 03:08:46;;;;;;;10.60;8.50;;;22.70;55.10;;;;;;215199;1289;23689;-58
2022/12/01 03:14:09;;;;;;;10.60;9.00;;;22.70;55.00;;;;;;215225;1283;25421;-54
2022/12/01 03:19:28;;;;;;;10.10;8.70;;;22.80;55.00;;;;;;215395;1281;22490;-53
2022/12/01 03:24:33;;;;;;;11.60;8.90;;;22.80;54.90;;;;;;215183;1283;22639;-54
2022/12/01 03:29:42;;;;;;;11.00;8.40;;;22.80;54.80;;;;;;215353;1295;23905;-53
2022/12/01 03:34:48;;;;;;;11.90;9.60;;;22.90;54.90;;;;;;215159;1278;22693;-54
2022/12/01 03:39:56;;;;;;;11.70;8.80;;;22.90;54.80;;;;;;214961;1299;25456;-53
2022/12/01 03:45:23;;;;;;;;;;;22.90;54.60;;;;;;215263;1281;23637;-54
2022/12/01 03:50:37;;;;;;;10.10;8.10;;;22.90;54.50;;;;;;215224;1283;25361;-54
2022/12/01 03:55:44;;;;;;;11.10;8.70;;;23.00;54.40;;;;;;215305;1299;25450;-54
2022/12/01 04:00:52;;;;;;;9.70;7.90;;;23.00;54.40;;;;;;215180;1292;23896;-54
2022/12/01 04:05:56;;;;;;;11.50;8.70;;;22.90;54.50;;;;;;215494;1295;23880;-52
2022/12/01 04:12:27;;;;;;;11.80;9.20;;;22.90;54.70;;;;;;215524;1279;22487;-53
2022/12/01 04:16:23;;;;;;;9.90;8.00;;;22.70;54.80;;;;;;215485;1297;25281;-53
2022/12/01 04:21:27;;;;;;;10.00;8.00;;;22.60;55.10;;;;;;215585;1298;22583;-55
2022/12/01 04:26:34;;;;;;;14.20;8.90;;;22.50;55.60;;;;;;215599;1282;25420;-54
2022/12/01 04:31:38;;;;;;;11.20;8.90;;;22.40;55.60;;;;;;215467;1283;23704;-53
2022/12/01 04:36:41;;;;;;;11.10;8.50;;;22.40;55.80;;;;;;215357;1283;22598;-53
2022/12/01 04:41:45;;;;;;;10.50;8.50;;;22.20;56.30;;;;;;215885;1285;22466;-53
2022/12/01 04:46:50;;;;;;;12.20;9.10;;;22.20;56.00;;;;;;222820;1279;22117;-55
2022/12/01 04:51:54;;;;;;;10.50;8.40;;;22.10;56.10;;;;;;216213;1282;23471;-54
2022/12/01 04:56:58;;;;;;;10.50;8.70;;;22.00;56.20;;;;;;215583;1284;24253;-54
2022/12/01 05:02:02;;;;;;;11.20;8.70;;;22.00;56.40;;;;;;215312;1286;23824;-53
2022/12/01 05:07:07;;;;;;;10.60;8.50;;;21.90;56.40;;;;;;215590;1284;22449;-54
2022/12/01 05:12:11;;;;;;;11.70;8.70;;;21.80;56.80;;;;;;215636;1282;25435;-54
2022/12/01 05:17:15;;;;;;;10.70;8.80;;;21.70;56.50;;;;;;215608;1282;25287;-54
2022/12/01 05:22:19;;;;;;;9.90;8.50;;;21.70;56.70;;;;;;215494;1285;24346;-54
2022/12/01 05:27:42;;;;;;;10.10;8.40;;;21.60;56.80;;;;;;215513;1293;23879;-52
2022/12/01 05:32:46;;;;;;;10.70;8.50;;;21.50;56.70;;;;;;215496;1277;25316;-54
2022/12/01 05:37:50;;;;;;;10.40;8.60;;;21.50;57.00;;;;;;215681;1276;26131;-54
2022/12/01 05:42:55;;;;;;;11.60;9.40;;;21.50;56.90;;;;;;215290;1287;23855;-54
2022/12/01 05:48:00;;;;;;;11.30;9.10;;;21.40;57.00;;;;;;215573;1297;26460;-55
2022/12/01 05:53:05;;;;;;;11.50;9.10;;;21.30;57.10;;;;;;215478;1288;22470;-55
2022/12/01 05:58:09;;;;;;;10.60;8.80;;;21.30;57.10;;;;;;215611;1277;24245;-53
2022/12/01 06:03:13;;;;;;;11.20;8.10;;;21.50;57.30;;;;;;215526;1290;22584;-54
2022/12/01 06:08:17;;;;;;;10.70;8.30;;;21.80;56.70;;;;;;215585;1297;25850;-54
2022/12/01 06:13:21;;;;;;;11.50;8.80;;;22.00;56.30;;;;;;215471;1283;22492;-54
2022/12/01 06:18:26;;;;;;;10.50;8.40;;;22.20;55.70;;;;;;215498;1285;22520;-50
2022/12/01 06:23:30;;;;;;;10.80;8.30;;;22.30;55.70;;;;;;215451;1277;22494;-53
2022/12/01 06:28:34;;;;;;;9.90;7.40;;;22.40;54.90;;;;;;215537;1286;23751;-54
2022/12/01 06:33:38;;;;;;;10.00;7.70;;;22.50;54.70;;;;;;215473;1269;25665;-54
2022/12/01 06:38:48;;;;;;;10.10;8.20;;;22.50;54.60;;;;;;215232;1283;23888;-54
2022/12/01 06:44:00;;;;;;;10.00;8.30;;;22.50;54.50;;;;;;215488;1290;24214;-53
2022/12/01 06:49:04;;;;;;;10.70;8.10;;;22.60;54.40;;;;;;215526;1279;24301;-53
2022/12/01 06:54:11;;;;;;;9.50;7.20;;;22.70;54.30;;;;;;215361;1269;24157;-54
2022/12/01 06:59:18;;;;;;;8.70;7.80;;;22.70;54.10;;;;;;215417;1275;25357;-54
2022/12/01 07:04:24;;;;;;;9.40;8.20;;;22.80;54.20;;;;;;215465;1292;24141;-54
2022/12/01 07:09:28;;;;;;;12.40;8.10;;;22.80;54.00;;;;;;215608;1279;22620;-51
2022/12/01 07:14:31;;;;;;;11.10;8.70;;;22.90;54.20;;;;;;215607;1276;24015;-54
2022/12/01 07:19:35;;;;;;;13.70;9.90;;;22.90;54.20;;;;;;215193;1285;25390;-53
2022/12/01 07:24:39;;;;;;;15.50;11.60;;;23.00;54.20;;;;;;215507;1277;25290;-53
2022/12/01 07:29:43;;;;;;;16.80;11.60;;;23.10;54.00;;;;;;215403;1277;25546;-53
2022/12/01 07:34:47;;;;;;;16.40;12.20;;;23.10;54.20;;;;;;215538;1276;22613;-52
2022/12/01 07:39:51;;;;;;;19.10;11.90;;;23.00;54.50;;;;;;215541;1283;22887;-51
2022/12/01 07:45:00;;;;;;;22.10;12.40;;;23.00;54.80;;;;;;215543;1283;24178;-52
2022/12/01 07:50:08;;;;;;;25.40;11.80;;;22.90;54.90;;;;;;215501;1288;22589;-53
2022/12/01 07:55:12;;;;;;;18.60;12.00;;;22.90;54.10;;;;;;215620;1275;25586;-52
2022/12/01 08:00:17;;;;;;;20.10;11.10;;;22.70;53.70;;;;;;215471;1281;24365;-54
2022/12/01 08:05:23;;;;;;;18.10;12.20;;;22.60;54.80;;;;;;215632;1272;22526;-53
2022/12/01 08:10:27;;;;;;;24.00;12.80;;;22.50;54.80;;;;;;215249;1276;23184;-52
2022/12/01 08:15:31;;;;;;;20.50;11.90;;;22.30;55.10;;;;;;216361;1283;23979;-54
2022/12/01 08:20:36;;;;;;;17.00;11.40;;;22.20;55.30;;;;;;215520;1281;22598;-51
2022/12/01 08:25:44;;;;;;;17.40;13.00;;;22.10;55.70;;;;;;215600;1279;22717;-52
2022/12/01 08:30:48;;;;;;;19.10;11.90;;;22.00;55.10;;;;;;215586;1297;25617;-52
2022/12/01 08:35:53;;;;;;;17.40;11.40;;;21.90;55.80;;;;;;215675;1281;25217;-51
2022/12/01 08:41:08;;;;;;;16.70;11.50;;;21.80;55.80;;;;;;215584;1286;25289;-53
2022/12/01 08:46:12;;;;;;;18.00;12.40;;;21.80;55.80;;;;;;215621;1282;22467;-54
2022/12/01 08:51:18;;;;;;;30.40;14.50;;;21.70;56.30;;;;;;215577;1276;27011;-54
2022/12/01 08:56:26;;;;;;;73.90;30.40;;;21.70;55.90;;;;;;215610;1281;24244;-54
2022/12/01 09:01:30;;;;;;;102.60;41.20;;;21.80;56.90;;;;;;215642;1269;23879;-54
2022/12/01 09:06:41;;;;;;;194.00;67.90;;;21.80;56.60;;;;;;215649;1280;22712;-54
2022/12/01 09:11:45;;;;;;;;;;;21.70;57.00;;;;;;215554;1283;23951;-53
2022/12/01 09:16:49;;;;;;;245.90;81.30;;;21.70;56.50;;;;;;215677;1282;22458;-53
2022/12/01 09:21:53;;;;;;;227.60;77.20;;;21.60;56.50;;;;;;215333;1298;24225;-52
2022/12/01 09:26:58;;;;;;;217.10;80.20;;;21.60;56.50;;;;;;215672;1283;24028;-54
2022/12/01 09:32:02;;;;;;;217.80;78.30;;;21.50;56.60;;;;;;215668;1276;22466;-54
2022/12/01 09:37:08;;;;;;;217.20;74.90;;;21.40;57.10;;;;;;215580;1296;23870;-55
2022/12/01 09:42:15;;;;;;;203.30;74.00;;;21.30;56.80;;;;;;215639;1283;24225;-55
2022/12/01 09:47:29;;;;;;;203.60;73.10;;;21.30;56.80;;;;;;215332;1289;22477;-52
2022/12/01 09:52:41;;;;;;;192.60;67.60;;;21.20;56.80;;;;;;215595;1272;22496;-54
2022/12/01 09:57:51;;;;;;;176.50;65.50;;;21.20;56.50;;;;;;215729;1283;25348;-54
2022/12/01 10:03:16;;;;;;;156.80;63.40;;;21.10;56.80;;;;;;215654;1297;24329;-54
2022/12/01 10:08:24;;;;;;;168.70;61.90;;;21.20;56.70;;;;;;215595;1280;23260;-53
2022/12/01 10:13:32;;;;;;;147.70;57.90;;;21.20;57.30;;;;;;215344;1283;22680;-54
2022/12/01 10:18:54;;;;;;;158.60;58.80;;;21.40;57.30;;;;;;215568;1276;22523;-54
2022/12/01 10:24:19;;;;;;;141.00;50.90;;;21.60;57.50;;;;;;215361;1283;167816;-55
2022/12/01 10:29:35;;;;;;;126.20;50.40;;;21.70;56.60;;;;;;215592;1269;22489;-54
2022/12/01 10:34:41;;;;;;;120.70;48.30;;;21.90;56.60;;;;;;215465;1275;25452;-53
2022/12/01 10:39:47;;;;;;;118.10;46.80;;;22.20;56.10;;;;;;215580;1287;22466;-54
2022/12/01 10:44:54;;;;;;;126.30;48.10;;;22.30;55.60;;;;;;215496;1297;25395;-54
2022/12/01 10:49:58;;;;;;;124.30;47.20;;;22.40;56.20;;;;;;215642;1277;22748;-54
2022/12/01 10:55:21;;;;;;;104.00;45.20;;;22.40;57.30;;;;;;215591;1281;24305;-54
2022/12/01 11:00:49;;;;;;;106.90;44.90;;;22.40;57.60;;;;;;215631;1291;25401;-53
2022/12/01 11:06:05;;;;;;;114.60;43.30;;;22.30;57.40;;;;;;215362;1283;22466;-53
2022/12/01 11:11:37;;;;;;;98.60;43.00;;;22.40;57.10;;;;;;215545;1282;22454;-54
2022/12/01 11:16:45;;;;;;;90.40;40.30;;;22.60;56.80;;;;;;215702;1276;22683;-52
2022/12/01 11:21:52;;;;;;;100.30;41.80;;;22.70;55.90;;;;;;215593;1277;22573;-55
2022/12/01 11:26:58;;;;;;;92.80;38.50;;;22.80;55.60;;;;;;215442;1283;25334;-54
2022/12/01 11:32:16;;;;;;;86.80;35.20;;;22.80;55.10;;;;;;215675;1282;23046;-55
2022/12/01 11:37:23;;;;;;;86.30;36.50;;;22.90;54.80;;;;;;215611;1275;23969;-55
2022/12/01 11:42:30;;;;;;;81.10;35.20;;;22.90;54.80;;;;;;215473;1269;22703;-54
2022/12/01 11:47:55;;;;;;;76.70;32.30;;;23.00;54.60;;;;;;215564;1275;24274;-52
2022/12/01 11:52:58;;;;;;;73.80;36.40;;;22.90;54.60;;;;;;215547;1278;23998;-50
2022/12/01 11:58:03;;;;;;;76.90;34.00;;;22.70;54.80;;;;;;215586;1279;25461;-51
2022/12/01 12:03:20;;;;;;;73.60;33.00;;;22.60;54.90;;;;;;215592;1275;22687;-55
2022/12/01 12:08:35;;;;;;;73.30;31.50;;;22.50;55.10;;;;;;215654;1285;25453;-52
2022/12/01 12:14:00;;;;;;;65.10;32.10;;;22.50;55.60;;;;;;215660;1295;22659;-52
2022/12/01 12:19:30;;;;;;;65.10;32.30;;;22.30;55.40;;;;;;215602;1276;25440;-52
2022/12/01 12:25:03;;;;;;;60.00;30.70;;;22.20;55.60;;;;;;215534;1298;23989;-51
2022/12/01 12:30:17;;;;;;;65.90;30.90;;;22.00;55.80;;;;;;215679;1282;24256;-49
2022/12/01 12:35:20;;;;;;;57.00;27.10;;;22.00;56.00;;;;;;215688;1281;24271;-51
2022/12/01 12:40:41;;;;;;;59.40;28.40;;;22.00;55.80;;;;;;215691;1291;23836;-52
2022/12/01 12:45:57;;;;;;;53.30;26.90;;;21.90;56.00;;;;;;215682;1272;24252;-50
2022/12/01 12:51:19;;;;;;;58.10;26.90;;;21.80;56.20;;;;;;215610;1282;26595;-57
2022/12/01 12:56:25;;;;;;;56.20;28.10;;;21.70;56.20;;;;;;215564;1276;22570;-57
2022/12/01 13:02:01;;;;;;;52.30;26.70;;;21.70;56.30;;;;;;215658;1279;24214;-55
2022/12/01 13:07:14;;;;;;;55.30;26.10;;;21.60;56.20;;;;;;214982;1283;22457;-54
2022/12/01 13:12:26;;;;;;;49.10;25.60;;;21.50;56.80;;;;;;215540;1283;25447;-55
2022/12/01 13:17:40;;;;;;;46.70;25.70;;;21.50;56.90;;;;;;216567;1283;26638;-55
2022/12/01 13:22:45;;;;;;;55.80;24.80;;;21.40;56.20;;;;;;215636;1276;26483;-54
2022/12/01 13:27:50;;;;;;;44.40;23.60;;;21.40;56.30;;;;;;215689;1282;22702;-55
2022/12/01 13:33:03;;;;;;;58.60;28.30;;;21.40;56.50;;;;;;215563;1276;24320;-55
2022/12/01 13:38:18;;;;;;;106.70;42.90;;;21.30;56.20;;;;;;215573;1269;24012;-54
2022/12/01 13:43:25;;;;;;;270.10;92.90;;;21.40;56.20;;;;;;215552;1275;22659;-54
2022/12/01 13:48:59;;;;;;;272.70;88.40;;;21.50;56.20;;;;;;215506;1272;22466;-55
2022/12/01 13:54:27;;;;;;;283.90;92.90;;;21.70;55.20;;;;;;215579;1276;22520;-54
2022/12/01 13:59:38;;;;;;;227.90;80.60;;;22.00;55.00;;;;;;215795;1276;22724;-54
2022/12/01 14:04:42;;;;;;;243.50;81.80;;;22.10;54.70;;;;;;215449;1282;22534;-54
2022/12/01 14:09:48;;;;;;;219.60;73.80;;;22.30;53.90;;;;;;215583;1283;23915;-55
2022/12/01 14:14:57;;;;;;;223.90;79.10;;;22.30;53.70;;;;;;215691;1291;25425;-55
2022/12/01 14:20:26;;;;;;;208.90;77.90;;;22.40;53.70;;;;;;215686;1282;23989;-55
2022/12/01 14:25:31;;;;;;;189.80;72.10;;;22.40;53.60;;;;;;215606;1277;22531;-55
2022/12/01 14:30:37;;;;;;;190.30;69.90;;;22.50;53.90;;;;;;215526;1291;22464;-56
2022/12/01 14:35:43;;;;;;;185.60;66.10;;;22.50;53.00;;;;;;215484;1279;25384;-55
2022/12/01 14:40:48;;;;;;;189.00;67.80;;;22.70;53.30;;;;;;215566;1282;23064;-55
2022/12/01 14:46:03;;;;;;;176.10;68.50;;;22.70;52.90;;;;;;215622;1276;22635;-53
2022/12/01 14:51:21;;;;;;;164.90;65.50;;;22.60;53.00;;;;;;215164;1283;23986;-55
2022/12/01 14:56:31;;;;;;;158.10;64.10;;;22.60;53.00;;;;;;215241;1283;22704;-54
2022/12/01 15:01:36;;;;;;;146.10;55.90;;;22.60;52.90;;;;;;215539;1284;25283;-54
2022/12/01 15:06:40;;;;;;;137.30;56.50;;;22.60;53.50;;;;;;215592;1282;25265;-54
2022/12/01 15:12:00;;;;;;;155.70;59.90;;;22.70;53.90;;;;;;215697;1291;22547;-53
2022/12/01 15:17:30;;;;;;;133.40;54.10;;;22.70;53.80;;;;;;215370;1277;25667;-52
2022/12/01 15:22:34;;;;;;;140.20;54.70;;;22.70;53.60;;;;;;215366;1285;25588;-54
2022/12/01 15:27:38;;;;;;;130.80;50.60;;;22.80;53.60;;;;;;215632;1290;22476;-53
2022/12/01 15:32:44;;;;;;;112.40;47.00;;;22.90;53.80;;;;;;215441;1291;25228;-53
2022/12/01 15:37:49;;;;;;;118.40;49.70;;;22.90;53.20;;;;;;215533;1282;24349;-53
2022/12/01 15:43:15;;;;;;;107.30;49.30;;;23.00;52.80;;;;;;215569;1287;22469;-54
2022/12/01 15:48:31;;;;;;;110.00;46.80;;;23.10;54.20;;;;;;215710;1283;24243;-50
2022/12/01 15:53:39;;;;;;;95.40;42.30;;;23.10;54.20;;;;;;215294;1275;25485;-54
2022/12/01 15:58:46;;;;;;;95.20;42.00;;;23.10;54.20;;;;;;215368;1276;23691;-52
2022/12/01 16:03:59;;;;;;;92.00;40.00;;;22.90;54.10;;;;;;215572;1297;24434;-54
2022/12/01 16:09:20;;;;;;;86.10;36.70;;;22.90;53.60;;;;;;215121;1283;25205;-54
2022/12/01 16:14:27;;;;;;;85.40;34.90;;;22.80;52.90;;;;;;215286;1282;24246;-53
2022/12/01 16:19:35;;;;;;;71.10;31.90;;;22.80;53.10;;;;;;215277;1283;25270;-52
2022/12/01 16:24:51;;;;;;;71.90;31.50;;;22.80;54.30;;;;;;215120;1279;22463;-53
2022/12/01 16:30:18;;;;;;;63.10;30.50;;;22.70;54.30;;;;;;215135;1282;22584;-53
2022/12/01 16:35:34;;;;;;;64.30;27.40;;;22.70;53.60;;;;;;215272;1283;22507;-52
2022/12/01 16:40:46;;;;;;;63.00;29.90;;;22.60;54.10;;;;;;215254;1284;23399;-54
2022/12/01 16:46:01;;;;;;;62.90;29.50;;;22.60;53.40;;;;;;215312;1291;23959;-54
2022/12/01 16:51:20;;;;;;;60.40;28.10;;;22.50;53.30;;;;;;215008;1285;25540;-50
2022/12/01 16:56:51;;;;;;;56.30;26.60;;;22.40;54.30;;;;;;214998;1272;22462;-56
2022/12/01 17:02:09;;;;;;;65.10;31.40;;;22.40;55.40;;;;;;215515;1298;24370;-54
2022/12/01 17:07:18;;;;;;;64.20;30.40;;;22.40;56.50;;;;;;215187;1291;27783;-55
2022/12/01 17:12:26;;;;;;;54.50;25.70;;;22.30;56.90;;;;;;215034;1285;22482;-59
2022/12/01 17:17:48;;;;;;;;;;;;;;;;;;;;;
2022/12/01 17:22:56;;;;;;;50.60;24.70;;;22.10;56.90;;;;;;216527;1282;25652;-58
2022/12/01 17:28:12;;;;;;;56.20;25.90;;;22.10;56.90;;;;;;215173;1299;22487;-58
2022/12/01 17:33:21;;;;;;;50.00;25.70;;;22.00;56.50;;;;;;215100;1292;23836;-59
2022/12/01 17:44:18;;;;;;;44.00;23.30;;;21.90;56.30;;;;;;215123;1276;22476;-59
2022/12/01 17:49:46;;;;;;;46.90;23.90;;;21.80;56.60;;;;;;215492;1276;22501;-59
2022/12/01 17:55:15;;;;;;;45.40;22.40;;;21.80;56.20;;;;;;215056;1276;26508;-58
2022/12/01 18:00:30;;;;;;;46.50;21.20;;;21.80;56.10;;;;;;215082;1283;25282;-59
2022/12/01 18:05:39;;;;;;;57.70;22.60;;;21.80;56.30;;;;;;215074;1275;22607;-58
2022/12/01 18:10:50;;;;;;;47.00;22.80;;;21.80;56.60;;;;;;214936;1275;24822;-58
2022/12/01 18:16:13;;;;;;;37.90;20.20;;;21.70;56.20;;;;;;215200;1282;22478;-60
2022/12/01 18:21:23;;;;;;;38.10;19.20;;;21.70;56.40;;;;;;214960;1280;24185;-61
2022/12/01 18:26:34;;;;;;;44.40;19.10;;;21.60;56.00;;;;;;215038;1281;22469;-60
2022/12/01 18:31:42;;;;;;;49.50;20.60;;;21.60;56.20;;;;;;215220;1283;23872;-59
2022/12/01 18:36:46;;;;;;;40.30;19.10;;;21.50;55.90;;;;;;215687;1275;25078;-61
2022/12/01 18:41:50;;;;;;;35.30;17.90;;;21.50;55.80;;;;;;214890;1283;22560;-60
2022/12/01 18:46:57;;;;;;;36.30;17.80;;;21.60;55.60;;;;;;215404;1276;22654;-59
2022/12/01 18:52:04;;;;;;;40.70;17.90;;;21.60;55.50;;;;;;215058;1292;23839;-59
2022/12/01 18:57:20;;;;;;;38.70;17.10;;;21.50;55.30;;;;;;215153;1295;22478;-57
2022/12/01 19:02:25;;;;;;;36.60;17.20;;;21.40;55.60;;;;;;215182;1289;23983;-57
2022/12/01 19:07:35;;;;;;;30.30;17.00;;;21.40;55.40;;;;;;215515;1294;24053;-58
2022/12/01 19:12:39;;;;;;;32.10;17.60;;;21.30;55.40;;;;;;215403;1284;24318;-57
2022/12/01 19:17:46;;;;;;;30.10;16.00;;;21.30;55.50;;;;;;215536;1273;22691;-54
2022/12/01 19:22:52;;;;;;;30.80;14.70;;;21.30;56.20;;;;;;215051;1285;22593;-57
2022/12/01 19:27:56;;;;;;;27.80;14.50;;;21.20;55.60;;;;;;215160;1280;23848;-57
2022/12/01 19:33:01;;;;;;;29.70;16.10;;;21.20;55.70;;;;;;215326;1283;22470;-58
2022/12/01 19:38:06;;;;;;;26.90;15.60;;;21.20;55.90;;;;;;215265;1276;23513;-58
2022/12/01 19:43:11;;;;;;;29.90;15.40;;;21.40;55.50;;;;;;215154;1284;22530;-55
2022/12/01 19:48:27;;;;;;;24.20;13.80;;;21.70;55.20;;;;;;215197;1275;22546;-56
2022/12/01 19:53:48;;;;;;;24.90;14.40;;;22.00;54.40;;;;;;215489;1283;25219;-56
2022/12/01 19:58:52;;;;;;;27.40;12.90;;;22.30;53.20;;;;;;215511;1291;25318;-55
2022/12/01 20:04:02;;;;;;;24.60;13.90;;;22.40;53.10;;;;;;215502;1283;22628;-56
2022/12/01 20:09:08;;;;;;;26.60;13.30;;;22.50;53.50;;;;;;215453;1288;24240;-56
2022/12/01 20:14:12;;;;;;;33.30;14.60;;;22.60;53.00;;;;;;215237;1276;24256;-55
2022/12/01 20:19:16;;;;;;;25.50;13.40;;;22.60;53.00;;;;;;215254;1272;24236;-56
2022/12/01 20:24:24;;;;;;;27.70;14.20;;;22.60;52.60;;;;;;215514;1297;26648;-56
2022/12/01 20:29:29;;;;;;;110.60;38.10;;;22.70;52.40;;;;;;215145;1280;24127;-56
2022/12/01 20:34:35;;;;;;;194.90;69.10;;;22.80;52.70;;;;;;215391;1282;23869;-56
2022/12/01 20:39:40;;;;;;;268.30;93.60;;;23.00;51.50;;;;;;215211;1296;25382;-56
2022/12/01 20:44:52;;;;;;;308.10;100.50;;;23.00;51.50;;;;;;215481;1276;24517;-55
2022/12/01 20:49:56;;;;;;;264.50;91.00;;;23.00;51.00;;;;;;215440;1280;22617;-56
2022/12/01 20:55:01;;;;;;;241.10;80.30;;;23.00;51.00;;;;;;215636;1277;23305;-57
2022/12/01 21:00:05;;;;;;;213.40;75.50;;;23.10;50.80;;;;;;215553;1287;22480;-56
2022/12/01 21:05:09;;;;;;;203.70;70.30;;;23.30;50.30;;;;;;215564;1277;24314;-56
2022/12/01 21:10:13;;;;;;;192.60;66.20;;;23.30;50.10;;;;;;215621;1280;25610;-56
2022/12/01 21:15:28;;;;;;;173.00;64.10;;;23.20;50.70;;;;;;215548;1283;22486;-56
2022/12/01 21:20:38;;;;;;;168.60;62.80;;;23.10;51.20;;;;;;215300;1281;24303;-56
2022/12/01 21:25:42;;;;;;;172.20;61.10;;;23.00;51.40;;;;;;215453;1282;25290;-53
2022/12/01 21:30:54;;;;;;;174.00;62.70;;;22.90;52.70;;;;;;215518;1280;24191;-55
2022/12/01 21:36:01;;;;;;;161.40;58.30;;;22.70;52.50;;;;;;215461;1280;25458;-52
2022/12/01 21:41:29;;;;;;;152.80;56.00;;;22.60;53.60;;;;;;215431;1272;23892;-55
2022/12/01 21:46:34;;;;;;;145.90;56.50;;;22.50;53.20;;;;;;215196;1273;25364;-56
2022/12/01 21:51:37;;;;;;;143.30;56.00;;;22.40;53.70;;;;;;215489;1280;25305;-56
2022/12/01 21:56:42;;;;;;;135.20;51.80;;;22.40;53.50;;;;;;215472;1280;25352;-57
2022/12/01 22:01:55;;;;;;;133.40;52.20;;;22.30;53.60;;;;;;215192;1283;22534;-55
2022/12/01 22:07:01;;;;;;;133.10;50.40;;;22.20;53.80;;;;;;215560;1282;22474;-55
2022/12/01 22:12:24;;;;;;;134.30;49.00;;;22.10;53.80;;;;;;215480;1289;24244;-55
2022/12/01 22:17:28;;;;;;;118.30;48.60;;;22.00;54.30;;;;;;215473;1282;23704;-55
2022/12/01 22:22:38;;;;;;;118.30;47.30;;;21.90;54.50;;;;;;214494;1283;1522268;-55
2022/12/01 22:27:45;;;;;;;122.50;46.30;;;21.80;54.60;;;;;;215301;1275;25211;-55
2022/12/01 22:32:57;;;;;;;117.90;45.00;;;21.80;57.60;;;;;;215496;1285;22510;-56
2022/12/01 22:38:10;;;;;;;122.80;43.10;;;21.90;57.10;;;;;;215604;1289;25338;-56
2022/12/01 22:43:16;;;;;;;106.30;43.90;;;21.90;57.70;;;;;;215388;1283;22531;-55
2022/12/01 22:48:26;;;;;;;103.20;42.30;;;21.90;58.40;;;;;;215245;1291;24005;-55
2022/12/01 22:53:33;;;;;;;91.60;41.10;;;21.80;57.60;;;;;;215580;1288;23869;-55
2022/12/01 22:58:55;;;;;;;95.30;39.70;;;21.70;57.70;;;;;;215537;1283;22451;-57
2022/12/01 23:04:31;;;;;;;93.90;41.30;;;21.70;57.40;;;;;;215469;1282;24481;-55
2022/12/01 23:09:42;;;;;;;90.90;39.30;;;21.60;57.60;;;;;;215288;1283;24278;-56
2022/12/01 23:14:51;;;;;;;86.90;38.00;;;21.60;57.50;;;;;;215259;1276;22440;-58
2022/12/01 23:20:08;;;;;;;91.40;38.00;;;21.60;57.60;;;;;;215295;1298;23844;-57
2022/12/01 23:25:18;;;;;;;80.20;34.00;;;21.60;57.60;;;;;;215266;1285;23651;-56
2022/12/01 23:30:24;;;;;;;78.30;32.50;;;21.40;57.70;;;;;;215288;1288;22610;-56
2022/12/01 23:35:33;;;;;;;75.00;32.40;;;21.40;58.30;;;;;;215393;1283;22536;-56
2022/12/01 23:40:38;;;;;;;74.10;31.80;;;21.30;57.90;;;;;;215147;1288;22532;-56
2022/12/01 23:45:44;;;;;;;78.40;31.20;;;21.30;58.50;;;;;;215017;1299;23656;-56
2022/12/01 23:50:52;;;;;;;66.70;30.80;;;21.30;58.20;;;;;;215190;1276;22979;-56
2022/12/01 23:56:04;;;;;;;67.30;31.50;;;21.30;58.20;;;;;;215147;1280;22537;-57
